createdAt,value
2023-02-26T00:01:24.696Z,6.66
2023-02-26T00:03:54.585Z,6.48
2023-02-26T00:06:22.784Z,6.58
2023-02-26T00:08:50.760Z,6.71
2023-02-26T00:11:19.160Z,6.69
2023-02-26T00:13:47.795Z,6.85
2023-02-26T00:16:27.624Z,6.75
2023-02-26T00:18:56.635Z,6.86
2023-02-26T00:21:26.476Z,6.90
2023-02-26T00:23:54.835Z,6.69
2023-02-26T00:26:26.778Z,6.60
2023-02-26T00:28:56.078Z,6.69
2023-02-26T00:31:26.472Z,6.67
2023-02-26T00:33:57.305Z,6.48
2023-02-26T00:36:31.238Z,6.52
2023-02-26T00:39:11.217Z,6.56
2023-02-26T00:41:40.096Z,6.38
2023-02-26T00:44:08.609Z,6.25
2023-02-26T00:46:45.675Z,6.31
2023-02-26T00:49:24.204Z,6.48
2023-02-26T00:51:56.694Z,6.58
2023-02-26T00:54:26.545Z,6.54
2023-02-26T00:56:56.104Z,6.56
2023-02-26T00:59:24.138Z,6.61
2023-02-26T01:01:54.576Z,6.69
2023-02-26T01:04:24.696Z,6.79
2023-02-26T01:06:54.981Z,6.88
2023-02-26T01:09:26.815Z,6.91
2023-02-26T01:11:57.814Z,6.90
2023-02-26T01:14:26.369Z,6.99
2023-02-26T01:17:04.546Z,7.04
2023-02-26T01:19:40.382Z,7.06
2023-02-26T01:22:14.306Z,7.10
2023-02-26T01:24:42.863Z,7.13
2023-02-26T01:27:11.202Z,7.14
2023-02-26T01:29:39.461Z,7.12
2023-02-26T01:32:16.801Z,7.04
2023-02-26T01:34:51.057Z,7.11
2023-02-26T01:37:28.378Z,7.11
2023-02-26T01:40:19.168Z,6.98
2023-02-26T01:42:52.283Z,6.99
2023-02-26T01:45:27.193Z,6.94
2023-02-26T01:48:03.394Z,6.88
2023-02-26T01:50:35.720Z,6.88
2023-02-26T01:53:21.474Z,6.93
2023-02-26T01:55:55.438Z,6.87
2023-02-26T01:58:25.111Z,6.80
2023-02-26T02:00:53.430Z,6.80
2023-02-26T02:03:25.835Z,6.82
2023-02-26T02:05:58.193Z,6.79
2023-02-26T02:08:26.334Z,6.80
2023-02-26T02:10:55.239Z,6.82
2023-02-26T02:13:42.197Z,6.83
2023-02-26T02:16:20.030Z,6.82
2023-02-26T02:18:57.416Z,6.80
2023-02-26T02:22:15.036Z,6.81
2023-02-26T02:24:59.163Z,6.88
2023-02-26T02:27:36.733Z,6.72
2023-02-26T02:30:19.209Z,6.80
2023-02-26T02:32:52.248Z,6.88
2023-02-26T02:35:25.929Z,6.81
2023-02-26T02:37:58.822Z,6.75
2023-02-26T02:40:32.198Z,6.77
2023-02-26T02:43:04.643Z,6.79
2023-02-26T02:45:38.794Z,6.76
2023-02-26T02:48:12.227Z,6.76
2023-02-26T02:50:45.534Z,6.68
2023-02-26T02:53:19.137Z,6.68
2023-02-26T02:55:49.613Z,6.91
2023-02-26T02:58:21.878Z,6.65
2023-02-26T03:00:52.240Z,6.69
2023-02-26T03:03:29.024Z,6.70
2023-02-26T03:05:57.224Z,6.68
2023-02-26T03:08:29.119Z,6.71
2023-02-26T03:10:59.165Z,6.69
2023-02-26T03:13:27.899Z,6.68
2023-02-26T03:16:16.537Z,6.65
2023-02-26T03:18:54.824Z,6.55
2023-02-26T03:21:30.534Z,6.64
2023-02-26T03:24:05.810Z,6.65
2023-02-26T03:26:40.947Z,6.63
2023-02-26T03:29:17.414Z,6.65
2023-02-26T03:31:54.365Z,6.64
2023-02-26T03:34:30.080Z,6.63
2023-02-26T03:37:03.389Z,6.60
2023-02-26T03:39:38.985Z,6.64
2023-02-26T03:42:14.541Z,6.49
2023-02-26T03:44:56.951Z,6.51
2023-02-26T03:47:26.319Z,6.45
2023-02-26T03:50:04.789Z,6.46
2023-02-26T03:52:41.362Z,6.44
2023-02-26T03:55:31.451Z,6.29
2023-02-26T03:58:08.144Z,6.42
2023-02-26T04:01:00.771Z,6.15
2023-02-26T04:03:33.908Z,6.09
2023-02-26T04:06:04.708Z,6.00
2023-02-26T04:08:33.652Z,6.00
2023-02-26T04:11:07.470Z,6.02
2023-02-26T04:13:35.473Z,6.03
2023-02-26T04:16:04.019Z,5.98
2023-02-26T04:18:32.240Z,6.04
2023-02-26T04:21:00.367Z,6.01
2023-02-26T04:23:29.748Z,6.06
2023-02-26T04:25:59.321Z,6.14
2023-02-26T04:28:27.764Z,6.12
2023-02-26T04:30:56.465Z,6.16
2023-02-26T04:33:24.426Z,6.22
2023-02-26T04:35:52.913Z,6.26
2023-02-26T04:38:21.203Z,6.35
2023-02-26T04:40:52.358Z,6.34
2023-02-26T04:43:21.512Z,6.32
2023-02-26T04:46:02.098Z,6.28
2023-02-26T04:48:31.694Z,6.22
2023-02-26T04:50:59.914Z,6.16
2023-02-26T04:53:28.159Z,6.17
2023-02-26T04:55:58.847Z,6.16
2023-02-26T04:58:27.256Z,6.25
2023-02-26T05:00:58.709Z,6.17
2023-02-26T05:03:27.232Z,6.17
2023-02-26T05:05:56.024Z,6.20
2023-02-26T05:08:24.496Z,6.22
2023-02-26T05:10:52.746Z,6.23
2023-02-26T05:13:22.265Z,6.30
2023-02-26T05:15:50.460Z,6.32
2023-02-26T05:18:18.434Z,6.35
2023-02-26T05:20:53.592Z,6.37
2023-02-26T05:23:21.736Z,6.38
2023-02-26T05:25:49.995Z,6.32
2023-02-26T05:28:18.771Z,6.30
2023-02-26T05:30:48.350Z,6.30
2023-02-26T05:33:16.399Z,6.33
2023-02-26T05:35:45.580Z,6.35
2023-02-26T05:38:13.604Z,6.35
2023-02-26T05:40:42.019Z,6.37
2023-02-26T05:43:10.489Z,6.37
2023-02-26T05:45:38.802Z,6.34
2023-02-26T05:48:08.332Z,6.33
2023-02-26T05:50:36.889Z,6.37
2023-02-26T05:53:04.915Z,6.38
2023-02-26T05:55:33.072Z,6.41
2023-02-26T05:58:01.617Z,6.34
2023-02-26T06:00:31.080Z,6.33
2023-02-26T06:02:59.201Z,6.29
2023-02-26T06:05:29.577Z,6.30
2023-02-26T06:07:57.774Z,6.25
2023-02-26T06:10:27.082Z,6.25
2023-02-26T06:12:55.805Z,6.25
2023-02-26T06:15:24.292Z,6.21
2023-02-26T06:17:52.405Z,6.21
2023-02-26T06:20:20.755Z,6.15
2023-02-26T06:22:50.760Z,6.14
2023-02-26T06:25:19.268Z,6.06
2023-02-26T06:27:47.782Z,6.11
2023-02-26T06:30:16.023Z,6.12
2023-02-26T06:32:44.506Z,6.15
2023-02-26T06:35:13.214Z,6.19
2023-02-26T06:37:41.376Z,6.23
2023-02-26T06:40:13.023Z,6.29
2023-02-26T06:42:41.097Z,6.23
2023-02-26T06:45:10.202Z,6.21
2023-02-26T06:47:38.247Z,6.25
2023-02-26T06:50:07.373Z,6.17
2023-02-26T06:52:35.751Z,6.03
2023-02-26T06:55:04.164Z,6.10
2023-02-26T06:57:33.842Z,6.05
2023-02-26T07:00:02.561Z,6.20
2023-02-26T07:02:31.081Z,6.22
2023-02-26T07:04:59.268Z,6.23
2023-02-26T07:07:27.406Z,6.28
2023-02-26T07:09:55.562Z,6.23
2023-02-26T07:12:23.761Z,6.29
2023-02-26T07:14:53.207Z,6.08
2023-02-26T07:17:21.599Z,6.29
2023-02-26T07:19:51.207Z,6.22
2023-02-26T07:22:21.933Z,6.22
2023-02-26T07:24:51.461Z,6.23
2023-02-26T07:27:19.501Z,6.28
2023-02-26T07:29:47.480Z,6.29
2023-02-26T07:32:16.846Z,6.36
2023-02-26T07:34:44.879Z,6.38
2023-02-26T07:37:13.046Z,6.39
2023-02-26T07:39:40.985Z,6.42
2023-02-26T07:42:09.175Z,6.48
2023-02-26T07:44:37.268Z,6.50
2023-02-26T07:47:05.470Z,6.54
2023-02-26T07:49:34.921Z,6.57
2023-02-26T07:52:03.370Z,6.60
2023-02-26T07:54:31.581Z,6.61
2023-02-26T07:56:59.764Z,6.64
2023-02-26T07:59:28.136Z,6.64
2023-02-26T08:01:56.107Z,6.68
2023-02-26T08:04:24.460Z,6.70
2023-02-26T08:06:54.924Z,6.64
2023-02-26T08:09:23.108Z,6.68
2023-02-26T08:11:51.060Z,6.72
2023-02-26T08:14:19.307Z,6.76
2023-02-26T08:16:47.306Z,6.72
2023-02-26T08:19:15.559Z,6.75
2023-02-26T08:21:43.507Z,6.84
2023-02-26T08:24:14.863Z,6.89
2023-02-26T08:26:42.842Z,6.86
2023-02-26T08:29:10.801Z,6.89
2023-02-26T08:31:38.762Z,6.91
2023-02-26T08:34:06.833Z,6.95
2023-02-26T08:36:34.761Z,6.91
2023-02-26T08:39:03.603Z,6.93
2023-02-26T08:41:33.056Z,6.92
2023-02-26T08:44:01.411Z,6.98
2023-02-26T08:46:29.938Z,7.01
2023-02-26T08:48:58.290Z,7.10
2023-02-26T08:51:26.878Z,7.11
2023-02-26T08:53:55.343Z,7.16
2023-02-26T08:56:24.227Z,7.21
2023-02-26T08:58:53.892Z,7.24
2023-02-26T09:01:22.226Z,7.14
2023-02-26T09:03:50.278Z,7.22
2023-02-26T09:06:18.197Z,7.30
2023-02-26T09:08:46.464Z,7.35
2023-02-26T09:11:14.756Z,7.41
2023-02-26T09:13:42.803Z,7.44
2023-02-26T09:16:12.620Z,7.44
2023-02-26T09:18:40.955Z,7.44
2023-02-26T09:21:09.451Z,7.49
2023-02-26T09:23:37.586Z,7.50
2023-02-26T09:26:05.919Z,7.55
2023-02-26T09:28:34.031Z,7.51
2023-02-26T09:31:02.433Z,7.46
2023-02-26T09:33:31.753Z,7.43
2023-02-26T09:35:59.746Z,7.44
2023-02-26T09:38:27.889Z,7.46
2023-02-26T09:41:00.794Z,7.59
2023-02-26T09:43:47.116Z,7.64
2023-02-26T09:46:25.738Z,7.59
2023-02-26T09:49:04.892Z,7.69
2023-02-26T09:51:36.002Z,7.79
2023-02-26T09:54:13.286Z,7.76
2023-02-26T09:56:41.640Z,7.69
2023-02-26T09:59:10.672Z,7.72
2023-02-26T10:01:48.678Z,7.81
2023-02-26T10:04:27.977Z,7.92
2023-02-26T10:07:08.555Z,7.97
2023-02-26T10:09:51.352Z,8.00
2023-02-26T10:12:21.648Z,7.82
2023-02-26T10:14:56.434Z,7.90
2023-02-26T10:17:30.086Z,7.69
2023-02-26T10:20:04.765Z,7.71
2023-02-26T10:22:38.874Z,7.50
2023-02-26T10:25:11.792Z,7.54
2023-02-26T10:27:49.549Z,7.58
2023-02-26T10:30:25.137Z,7.62
2023-02-26T10:33:04.265Z,7.71
2023-02-26T10:35:38.581Z,7.73
2023-02-26T10:38:12.299Z,7.89
2023-02-26T10:40:45.785Z,7.67
2023-02-26T10:43:16.376Z,7.94
2023-02-26T10:45:53.848Z,7.66
2023-02-26T10:48:44.669Z,7.78
2023-02-26T10:51:17.902Z,7.84
2023-02-26T10:53:56.616Z,7.64
2023-02-26T10:56:27.541Z,7.77
2023-02-26T10:58:56.002Z,7.74
2023-02-26T11:01:26.711Z,7.75
2023-02-26T11:03:58.963Z,7.86
2023-02-26T11:06:34.708Z,7.84
2023-02-26T11:09:15.538Z,7.99
2023-02-26T11:11:48.172Z,8.06
2023-02-26T11:14:17.201Z,8.01
2023-02-26T11:16:49.294Z,8.13
2023-02-26T11:19:18.576Z,8.15
2023-02-26T11:21:48.829Z,8.32
2023-02-26T11:24:29.885Z,8.21
2023-02-26T11:27:03.768Z,8.23
2023-02-26T11:29:39.166Z,8.22
2023-02-26T11:32:08.568Z,8.35
2023-02-26T11:34:36.767Z,8.39
2023-02-26T11:37:06.796Z,8.55
2023-02-26T11:39:37.410Z,8.31
2023-02-26T11:42:06.646Z,8.26
2023-02-26T11:44:39.758Z,8.40
2023-02-26T11:47:13.243Z,8.48
2023-02-26T11:49:45.322Z,8.58
2023-02-26T11:52:24.140Z,8.62
2023-02-26T11:54:58.273Z,8.61
2023-02-26T11:57:29.147Z,8.52
2023-02-26T12:00:00.163Z,8.59
2023-02-26T12:02:35.052Z,8.76
2023-02-26T12:05:07.542Z,8.86
2023-02-26T12:07:37.843Z,8.92
2023-02-26T12:10:14.961Z,8.93
2023-02-26T12:13:02.596Z,8.89
2023-02-26T12:15:37.523Z,8.85
2023-02-26T12:18:31.482Z,8.97
2023-02-26T12:21:14.304Z,9.21
2023-02-26T12:24:12.480Z,9.35
2023-02-26T12:26:47.021Z,9.08
2023-02-26T12:29:47.594Z,9.14
2023-02-26T12:32:32.116Z,9.26
2023-02-26T12:35:27.582Z,9.44
2023-02-26T12:38:09.787Z,9.50
2023-02-26T12:41:19.567Z,9.58
2023-02-26T12:43:54.259Z,9.82
2023-02-26T12:46:44.748Z,9.99
2023-02-26T12:49:37.103Z,10.02
2023-02-26T12:52:19.744Z,9.82
2023-02-26T12:55:09.786Z,9.44
2023-02-26T12:58:06.494Z,9.43
2023-02-26T13:01:12.890Z,9.59
2023-02-26T13:04:04.549Z,9.39
2023-02-26T13:06:56.598Z,9.64
2023-02-26T13:09:35.910Z,9.45
2023-02-26T13:12:17.977Z,9.21
2023-02-26T13:14:56.712Z,9.19
2023-02-26T13:17:33.051Z,9.31
2023-02-26T13:20:11.546Z,9.17
2023-02-26T13:22:43.800Z,8.95
2023-02-26T13:25:20.746Z,8.93
2023-02-26T13:27:50.367Z,9.06
2023-02-26T13:30:24.954Z,8.98
2023-02-26T13:33:00.544Z,8.80
2023-02-26T13:35:34.702Z,9.09
2023-02-26T13:38:08.050Z,9.02
2023-02-26T13:40:48.857Z,9.24
2023-02-26T13:43:33.261Z,9.38
2023-02-26T13:46:14.343Z,9.53
2023-02-26T13:48:50.392Z,9.69
2023-02-26T13:51:30.719Z,9.80
2023-02-26T13:54:04.432Z,9.69
2023-02-26T13:56:48.698Z,9.73
2023-02-26T13:59:31.746Z,9.78
2023-02-26T14:02:03.360Z,10.01
2023-02-26T14:04:32.846Z,10.19
2023-02-26T14:07:11.887Z,10.17
2023-02-26T14:09:55.576Z,10.15
2023-02-26T14:12:26.899Z,10.01
2023-02-26T14:15:29.485Z,9.96
2023-02-26T14:18:20.689Z,9.81
2023-02-26T14:20:49.299Z,9.32
2023-02-26T14:23:37.667Z,9.46
2023-02-26T14:26:18.597Z,9.46
2023-02-26T14:28:57.297Z,9.66
2023-02-26T14:31:27.874Z,9.91
2023-02-26T14:34:05.586Z,9.92
2023-02-26T14:36:39.548Z,9.70
2023-02-26T14:39:23.472Z,9.52
2023-02-26T14:41:56.950Z,9.43
2023-02-26T14:44:29.280Z,9.28
2023-02-26T14:46:58.875Z,9.27
2023-02-26T14:49:31.037Z,9.11
2023-02-26T14:52:34.068Z,9.44
2023-02-26T14:55:23.024Z,9.56
2023-02-26T14:57:59.050Z,9.52
2023-02-26T15:00:36.233Z,9.65
2023-02-26T15:03:36.190Z,9.90
2023-02-26T15:06:18.670Z,10.06
2023-02-26T15:09:01.101Z,10.41
2023-02-26T15:11:47.641Z,10.60
2023-02-26T15:14:31.633Z,10.66
2023-02-26T15:17:10.706Z,10.60
2023-02-26T15:19:57.591Z,10.69
2023-02-26T15:22:40.657Z,10.78
2023-02-26T15:25:20.516Z,10.95
2023-02-26T15:27:50.768Z,11.02
2023-02-26T15:30:19.455Z,10.92
2023-02-26T15:32:48.053Z,10.94
2023-02-26T15:35:19.911Z,11.04
2023-02-26T15:37:51.087Z,10.97
2023-02-26T15:40:21.103Z,10.58
2023-02-26T15:42:53.250Z,10.35
2023-02-26T15:45:27.497Z,10.19
2023-02-26T15:47:58.894Z,10.29
2023-02-26T15:50:32.527Z,10.36
2023-02-26T15:53:03.522Z,10.40
2023-02-26T15:55:37.250Z,10.51
2023-02-26T15:58:09.036Z,10.44
2023-02-26T16:00:39.947Z,10.38
2023-02-26T16:03:08.380Z,10.37
2023-02-26T16:05:38.972Z,10.21
2023-02-26T16:08:07.624Z,10.10
2023-02-26T16:10:40.602Z,9.87
2023-02-26T16:13:15.979Z,9.86
2023-02-26T16:15:44.771Z,9.77
2023-02-26T16:18:16.423Z,9.74
2023-02-26T16:20:47.500Z,9.66
2023-02-26T16:23:18.981Z,9.67
2023-02-26T16:25:53.574Z,9.61
2023-02-26T16:28:27.836Z,9.49
2023-02-26T16:30:59.030Z,9.43
2023-02-26T16:33:28.144Z,9.45
2023-02-26T16:36:03.801Z,9.52
2023-02-26T16:38:34.705Z,9.30
2023-02-26T16:41:07.783Z,9.30
2023-02-26T16:43:51.931Z,9.41
2023-02-26T16:46:24.757Z,9.22
2023-02-26T16:48:57.169Z,9.35
2023-02-26T16:51:29.656Z,9.21
2023-02-26T16:54:02.072Z,9.30
2023-02-26T16:56:34.100Z,9.33
2023-02-26T16:59:09.171Z,9.28
2023-02-26T17:01:40.819Z,9.28
2023-02-26T17:04:12.190Z,9.30
2023-02-26T17:06:42.069Z,9.30
2023-02-26T17:09:26.246Z,9.27
2023-02-26T17:12:13.947Z,9.23
2023-02-26T17:14:45.897Z,9.22
2023-02-26T17:17:13.963Z,9.15
2023-02-26T17:19:42.180Z,9.18
2023-02-26T17:22:20.748Z,9.08
2023-02-26T17:24:49.628Z,9.13
2023-02-26T17:27:22.446Z,9.08
2023-02-26T17:29:52.612Z,9.09
2023-02-26T17:32:23.065Z,9.08
2023-02-26T17:34:52.038Z,9.02
2023-02-26T17:37:21.256Z,8.98
2023-02-26T17:39:50.965Z,8.86
2023-02-26T17:42:23.127Z,8.80
2023-02-26T17:44:52.881Z,8.93
2023-02-26T17:47:23.403Z,8.84
2023-02-26T17:49:51.435Z,8.85
2023-02-26T17:52:19.610Z,8.93
2023-02-26T17:54:48.206Z,8.75
2023-02-26T17:57:18.573Z,8.91
2023-02-26T17:59:46.940Z,8.97
2023-02-26T18:02:23.198Z,8.91
2023-02-26T18:04:52.052Z,8.91
2023-02-26T18:07:21.197Z,8.90
2023-02-26T18:09:49.703Z,8.90
2023-02-26T18:12:20.222Z,8.85
2023-02-26T18:14:48.974Z,8.76
2023-02-26T18:17:23.534Z,8.74
2023-02-26T18:19:51.868Z,8.89
2023-02-26T18:22:25.178Z,8.89
2023-02-26T18:24:53.534Z,8.93
2023-02-26T18:27:24.200Z,8.92
2023-02-26T18:29:53.051Z,8.93
2023-02-26T18:32:25.148Z,8.95
2023-02-26T18:34:53.460Z,8.92
2023-02-26T18:37:26.075Z,8.92
2023-02-26T18:39:56.917Z,8.90
2023-02-26T18:42:27.173Z,8.90
2023-02-26T18:44:56.162Z,8.93
2023-02-26T18:47:26.830Z,8.90
2023-02-26T18:49:55.163Z,8.90
2023-02-26T18:52:23.088Z,8.87
2023-02-26T18:54:51.107Z,8.88
2023-02-26T18:57:19.756Z,8.88
2023-02-26T18:59:48.036Z,8.86
2023-02-26T19:02:16.091Z,8.80
2023-02-26T19:04:47.185Z,8.80
2023-02-26T19:07:15.493Z,8.82
2023-02-26T19:09:43.477Z,8.83
2023-02-26T19:12:14.537Z,8.67
2023-02-26T19:14:42.747Z,8.84
2023-02-26T19:17:10.739Z,8.88
2023-02-26T19:19:40.674Z,8.85
2023-02-26T19:22:10.152Z,8.85
2023-02-26T19:24:38.350Z,8.84
2023-02-26T19:27:07.868Z,8.87
2023-02-26T19:29:36.930Z,8.86
2023-02-26T19:32:05.935Z,8.81
2023-02-26T19:34:34.786Z,8.76
2023-02-26T19:37:03.208Z,8.83
2023-02-26T19:39:34.561Z,8.70
2023-02-26T19:42:02.796Z,8.60
2023-02-26T19:44:32.304Z,8.82
2023-02-26T19:47:01.071Z,8.80
2023-02-26T19:49:29.977Z,8.77
2023-02-26T19:51:58.432Z,8.68
2023-02-26T19:54:27.049Z,8.63
2023-02-26T19:56:56.699Z,8.76
2023-02-26T19:59:24.898Z,8.75
2023-02-26T20:01:53.299Z,8.86
2023-02-26T20:04:21.408Z,8.91
2023-02-26T20:06:49.397Z,8.79
2023-02-26T20:09:19.092Z,8.70
2023-02-26T20:11:47.515Z,8.83
2023-02-26T20:14:16.949Z,8.89
2023-02-26T20:16:45.105Z,8.85
2023-02-26T20:19:13.665Z,8.82
2023-02-26T20:21:41.789Z,8.75
2023-02-26T20:24:10.299Z,8.82
2023-02-26T20:26:38.424Z,8.72
2023-02-26T20:29:06.647Z,8.76
2023-02-26T20:31:36.094Z,8.54
2023-02-26T20:34:05.270Z,8.52
2023-02-26T20:36:33.693Z,8.44
2023-02-26T20:39:02.713Z,8.52
2023-02-26T20:41:30.782Z,8.38
2023-02-26T20:43:58.897Z,8.51
2023-02-26T20:46:27.236Z,8.56
2023-02-26T20:48:56.664Z,8.65
2023-02-26T20:51:25.663Z,8.52
2023-02-26T20:53:54.582Z,8.53
2023-02-26T20:56:22.758Z,8.63
2023-02-26T20:58:51.120Z,8.62
2023-02-26T21:01:19.268Z,8.71
2023-02-26T21:03:47.219Z,8.68
2023-02-26T21:06:16.581Z,8.52
2023-02-26T21:08:44.980Z,8.61
2023-02-26T21:11:13.542Z,8.48
2023-02-26T21:13:41.448Z,8.44
2023-02-26T21:16:09.830Z,8.48
2023-02-26T21:18:37.963Z,8.52
2023-02-26T21:21:06.913Z,8.45
2023-02-26T21:23:36.306Z,8.51
2023-02-26T21:26:04.747Z,8.47
2023-02-26T21:28:32.879Z,8.32
2023-02-26T21:31:00.963Z,8.41
2023-02-26T21:33:29.193Z,8.29
2023-02-26T21:35:57.181Z,8.35
2023-02-26T21:38:25.688Z,8.42
2023-02-26T21:40:55.099Z,8.41
2023-02-26T21:43:23.096Z,8.29
2023-02-26T21:45:51.348Z,8.29
2023-02-26T21:48:19.479Z,8.36
2023-02-26T21:50:49.308Z,8.35
2023-02-26T21:53:17.302Z,8.22
2023-02-26T21:55:45.644Z,8.15
2023-02-26T21:58:15.027Z,8.20
2023-02-26T22:00:43.450Z,8.15
2023-02-26T22:03:11.896Z,8.20
2023-02-26T22:05:39.936Z,8.16
2023-02-26T22:08:07.881Z,8.24
2023-02-26T22:10:36.159Z,7.97
2023-02-26T22:13:04.825Z,8.14
2023-02-26T22:15:34.310Z,7.94
2023-02-26T22:18:02.554Z,7.83
2023-02-26T22:20:31.246Z,8.04
2023-02-26T22:22:59.456Z,7.90
2023-02-26T22:25:27.586Z,7.93
2023-02-26T22:27:55.919Z,7.86
2023-02-26T22:30:24.242Z,7.93
2023-02-26T22:32:53.930Z,7.89
2023-02-26T22:35:22.144Z,7.91
2023-02-26T22:37:50.267Z,7.91
2023-02-26T22:40:18.345Z,7.95
2023-02-26T22:42:46.316Z,8.06
2023-02-26T22:45:17.498Z,8.01
2023-02-26T22:47:45.887Z,8.11
2023-02-26T22:50:15.859Z,7.93
2023-02-26T22:52:44.242Z,8.10
2023-02-26T22:55:13.137Z,7.98
2023-02-26T22:57:41.202Z,7.83
2023-02-26T23:00:16.190Z,7.99
2023-02-26T23:02:44.293Z,7.85
2023-02-26T23:05:12.883Z,7.96
2023-02-26T23:07:42.589Z,7.89
2023-02-26T23:10:13.059Z,7.97
2023-02-26T23:12:41.229Z,7.98
2023-02-26T23:15:10.911Z,8.02
2023-02-26T23:17:39.696Z,7.96
2023-02-26T23:20:11.830Z,8.02
2023-02-26T23:22:39.714Z,7.95
2023-02-26T23:25:09.973Z,8.07
2023-02-26T23:27:37.872Z,8.11
2023-02-26T23:30:08.285Z,8.17
2023-02-26T23:32:36.732Z,8.13
2023-02-26T23:35:05.480Z,7.94
2023-02-26T23:37:33.379Z,7.99
2023-02-26T23:40:01.377Z,8.20
2023-02-26T23:42:30.936Z,8.19
2023-02-26T23:44:58.925Z,8.20
2023-02-26T23:47:27.481Z,8.14
2023-02-26T23:49:55.649Z,8.16
2023-02-26T23:52:25.711Z,8.20
2023-02-26T23:54:54.547Z,8.11
2023-02-26T23:57:22.511Z,8.10
2023-02-26T23:59:51.784Z,8.09
